Time;durP1;ratioP1;P1;durP2;ratioP2;P2;SDS_P1;SDS_P2;PMS_P1;PMS_P2;Temp;Humidity;BMP_temperature;BMP_pressure;BME280_temperature;BME280_humidity;BME280_pressure;Samples;Min_cycle;Max_cycle;Signal;HPM_P1;HPM_P2
2023/10/22 00:01:15;;;;;;;;;;;;;;;1.85;66.07;100713.59;4935615;28;19923;-75
2023/10/22 00:03:41;;;;;;;;;;;;;;;1.92;66.36;100718.19;4942865;28;20412;-75
2023/10/22 00:06:07;;;;;;;;;;;;;;;1.97;66.45;100714.94;4956532;28;19930;-76
2023/10/22 00:08:33;;;;;;;;;;;;;;;1.99;66.24;100709.03;4933602;28;20377;-76
2023/10/22 00:10:58;;;;;;;;;;;;;;;1.93;65.80;100717.38;4933446;28;20033;-75
2023/10/22 00:13:24;;;;;;;;;;;;;;;1.99;66.33;100713.31;4940325;28;20025;-76
2023/10/22 00:15:50;;;;;;;;;;;;;;;1.98;66.10;100709.00;4933571;28;19934;-78
2023/10/22 00:18:15;;;;;;;;;;;;;;;1.99;66.38;100706.47;4949649;28;19969;-76
2023/10/22 00:20:41;;;;;;;;;;;;;;;2.04;66.22;100701.50;4937545;29;19926;-75
2023/10/22 00:23:07;;;;;;;;;;;;;;;2.07;66.38;100694.84;4939948;28;19934;-76
2023/10/22 00:25:36;;;;;;;;;;;;;;;2.11;66.44;100696.69;4919447;28;19929;-75
2023/10/22 00:28:03;;;;;;;;;;;;;;;2.16;66.46;100690.84;4932309;28;19922;-77
2023/10/22 00:30:30;;;;;;;;;;;;;;;2.20;66.23;100695.31;4948556;28;20032;-74
2023/10/22 00:32:56;;;;;;;;;;;;;;;2.21;66.06;100694.50;4936036;29;19930;-76
2023/10/22 00:35:22;;;;;;;;;;;;;;;2.23;66.10;100692.84;4933825;29;19927;-77
2023/10/22 00:37:48;;;;;;;;;;;;;;;2.28;66.15;100693.94;4949150;28;20040;-76
2023/10/22 00:40:14;;;;;;;;;;;;;;;2.32;66.41;100700.91;4935891;29;19957;-75
2023/10/22 00:42:40;;;;;;;;;;;;;;;2.35;66.08;100702.75;4932004;29;19929;-75
2023/10/22 00:45:07;;;;;;;;;;;;;;;2.30;65.78;100711.94;4921241;29;20020;-75
2023/10/22 00:47:34;;;;;;;;;;;;;;;2.29;66.08;100720.47;4935916;29;19922;-75
2023/10/22 00:50:01;;;;;;;;;;;;;;;2.29;66.37;100729.06;4920935;28;19923;-77
2023/10/22 00:52:27;;;;;;;;;;;;;;;2.31;66.02;100730.00;4934925;28;19933;-76
2023/10/22 00:54:54;;;;;;;;;;;;;;;2.34;66.04;100742.09;4948552;28;19927;-75
2023/10/22 00:57:22;;;;;;;;;;;;;;;2.32;66.31;100718.88;4948416;28;20395;-74
2023/10/22 00:59:50;;;;;;;;;;;;;;;2.31;66.10;100714.59;4948034;28;20421;-76
2023/10/22 01:02:16;;;;;;;;;;;;;;;2.21;65.58;100709.91;4945087;28;19923;-75
2023/10/22 01:04:42;;;;;;;;;;;;;;;2.18;65.94;100714.91;4950527;28;19930;-76
2023/10/22 01:07:08;;;;;;;;;;;;;;;2.18;66.34;100710.66;4938424;28;19926;-75
2023/10/22 01:09:34;;;;;;;;;;;;;;;2.23;66.09;100703.13;4956296;28;19943;-75
2023/10/22 01:12:04;;;;;;;;;;;;;;;2.31;66.24;100722.31;4945065;28;19927;-77
2023/10/22 01:14:30;;;;;;;;;;;;;;;2.41;66.09;100708.13;4930328;28;20388;-78
2023/10/22 01:16:56;;;;;;;;;;;;;;;2.43;65.87;100701.31;4949778;28;19934;-74
2023/10/22 01:19:22;;;;;;;;;;;;;;;2.46;65.75;100700.59;4934118;28;19923;-72
2023/10/22 01:21:48;;;;;;;;;;;;;;;2.47;66.11;100684.34;4949168;28;19938;-77
2023/10/22 01:24:14;;;;;;;;;;;;;;;2.34;66.27;100657.31;4932794;29;19954;-74
2023/10/22 01:26:43;;;;;;;;;;;;;;;2.46;65.96;100674.91;4950409;28;19969;-73
2023/10/22 01:29:10;;;;;;;;;;;;;;;2.56;65.56;100711.28;4957180;28;20322;-73
2023/10/22 01:31:36;;;;;;;;;;;;;;;2.49;65.58;100719.56;4917201;28;20388;-72
2023/10/22 01:34:02;;;;;;;;;;;;;;;2.46;65.88;100716.00;4948387;28;20416;-73
2023/10/22 01:36:29;;;;;;;;;;;;;;;2.47;65.89;100713.47;4918201;28;20276;-72
2023/10/22 01:38:55;;;;;;;;;;;;;;;2.50;65.62;100707.59;4948255;28;19950;-73
2023/10/22 01:41:21;;;;;;;;;;;;;;;2.52;65.95;100706.84;4932268;28;19922;-74
2023/10/22 01:43:47;;;;;;;;;;;;;;;2.52;66.02;100706.84;4920662;28;20338;-74
2023/10/22 01:46:14;;;;;;;;;;;;;;;2.55;65.81;100700.91;4920974;28;20407;-73
2023/10/22 01:48:41;;;;;;;;;;;;;;;2.58;66.18;100679.63;4908426;28;19922;-74
2023/10/22 01:51:07;;;;;;;;;;;;;;;2.53;65.43;100703.44;4939099;28;19937;-74
2023/10/22 01:53:33;;;;;;;;;;;;;;;2.51;65.98;100719.63;4947996;28;19922;-75
2023/10/22 01:55:59;;;;;;;;;;;;;;;2.55;66.32;100713.78;4932291;28;20025;-74
2023/10/22 01:58:36;;;;;;;;;;;;;;;2.56;66.05;100720.66;4931858;28;20016;-73
2023/10/22 02:01:06;;;;;;;;;;;;;;;2.61;66.28;100721.72;4928613;29;19922;-74
2023/10/22 02:03:35;;;;;;;;;;;;;;;2.63;66.02;100693.53;4917099;28;19927;-74
2023/10/22 02:06:15;;;;;;;;;;;;;;;2.66;65.99;100684.22;4939599;28;19922;-73
2023/10/22 02:08:41;;;;;;;;;;;;;;;2.73;65.64;100664.75;4933931;28;20020;-73
2023/10/22 02:11:07;;;;;;;;;;;;;;;2.56;64.57;100665.03;4919357;28;19942;-74
2023/10/22 02:13:33;;;;;;;;;;;;;;;2.45;65.71;100675.72;4956123;28;20191;-72
2023/10/22 02:15:59;;;;;;;;;;;;;;;2.52;65.71;100667.44;4916617;28;20286;-71
2023/10/22 02:18:24;;;;;;;;;;;;;;;2.44;65.79;100666.25;4930087;28;19969;-71
2023/10/22 02:20:54;;;;;;;;;;;;;;;2.48;66.10;100668.13;4931537;28;19972;-70
2023/10/22 02:23:21;;;;;;;;;;;;;;;2.54;66.34;100666.66;4916704;28;19922;-71
2023/10/22 02:25:46;;;;;;;;;;;;;;;2.47;65.53;100661.22;4956635;28;20685;-74
2023/10/22 02:28:12;;;;;;;;;;;;;;;2.41;65.45;100647.31;4932126;28;19930;-74
2023/10/22 02:30:38;;;;;;;;;;;;;;;2.36;65.21;100647.97;4956431;28;20009;-73
2023/10/22 02:33:03;;;;;;;;;;;;;;;2.36;65.59;100637.69;4932160;28;19952;-73
2023/10/22 02:35:30;;;;;;;;;;;;;;;2.47;66.38;100632.97;4931935;28;19943;-72
2023/10/22 02:37:56;;;;;;;;;;;;;;;2.56;65.87;100635.88;4931437;28;19922;-73
2023/10/22 02:40:23;;;;;;;;;;;;;;;2.39;65.89;100656.66;4933193;28;19969;-73
2023/10/22 02:42:49;;;;;;;;;;;;;;;2.27;66.05;100645.94;4942210;28;20017;-74
2023/10/22 02:45:15;;;;;;;;;;;;;;;2.42;66.56;100635.38;4930739;28;20047;-73
2023/10/22 02:47:41;;;;;;;;;;;;;;;2.57;66.44;100627.34;4929892;29;19922;-74
2023/10/22 02:50:08;;;;;;;;;;;;;;;2.67;65.92;100614.03;4931900;28;19926;-74
2023/10/22 02:52:34;;;;;;;;;;;;;;;2.64;66.11;100618.19;4932948;28;20027;-73
2023/10/22 02:54:59;;;;;;;;;;;;;;;2.56;65.74;100610.16;4939305;28;19973;-73
2023/10/22 02:57:25;;;;;;;;;;;;;;;2.46;65.97;100611.53;4939675;28;19926;-75
2023/10/22 02:59:51;;;;;;;;;;;;;;;2.43;65.84;100618.25;4941559;28;19996;-74
2023/10/22 03:02:18;;;;;;;;;;;;;;;2.49;66.21;100623.63;4933845;28;20029;-73
2023/10/22 03:04:43;;;;;;;;;;;;;;;2.37;65.89;100594.06;4897524;28;20408;-71
2023/10/22 03:07:10;;;;;;;;;;;;;;;2.70;66.70;100641.50;4955768;28;19926;-72
2023/10/22 03:09:36;;;;;;;;;;;;;;;2.68;65.88;100631.19;4946023;28;20391;-72
2023/10/22 03:12:01;;;;;;;;;;;;;;;2.74;66.39;100639.94;4931800;29;19922;-72
2023/10/22 03:14:30;;;;;;;;;;;;;;;2.58;65.85;100634.22;4931960;28;19931;-73
2023/10/22 03:16:59;;;;;;;;;;;;;;;2.46;65.90;100644.94;4929283;28;19926;-73
2023/10/22 03:19:24;;;;;;;;;;;;;;;2.61;66.64;100649.75;4931051;28;19945;-74
2023/10/22 03:21:50;;;;;;;;;;;;;;;2.67;65.99;100655.13;4932334;28;20025;-73
2023/10/22 03:24:17;;;;;;;;;;;;;;;2.76;66.59;100653.75;4933150;28;19953;-74
2023/10/22 03:26:43;;;;;;;;;;;;;;;2.85;66.27;100644.66;4947603;28;20428;-73
2023/10/22 03:29:09;;;;;;;;;;;;;;;2.92;65.82;100637.16;4932406;28;20404;-74
2023/10/22 03:31:35;;;;;;;;;;;;;;;2.92;66.00;100627.75;4948893;28;19926;-74
2023/10/22 03:34:03;;;;;;;;;;;;;;;2.85;65.69;100613.81;4948160;28;19926;-73
2023/10/22 03:36:29;;;;;;;;;;;;;;;2.84;66.18;100622.34;4932164;28;20296;-72
2023/10/22 03:38:55;;;;;;;;;;;;;;;2.74;66.03;100589.41;4940124;28;19922;-73
2023/10/22 03:41:21;;;;;;;;;;;;;;;3.04;66.31;100618.72;4936703;28;19946;-74
2023/10/22 03:43:47;;;;;;;;;;;;;;;3.05;66.03;100607.59;4942531;28;19926;-73
2023/10/22 03:46:13;;;;;;;;;;;;;;;3.07;65.73;100600.81;4947710;28;20018;-75
2023/10/22 03:48:39;;;;;;;;;;;;;;;3.08;65.68;100592.28;4916002;28;19926;-73
2023/10/22 03:51:06;;;;;;;;;;;;;;;3.07;65.91;100587.97;4938162;28;19984;-74
2023/10/22 03:53:32;;;;;;;;;;;;;;;2.99;65.65;100585.13;4919721;28;19958;-73
2023/10/22 03:55:57;;;;;;;;;;;;;;;2.89;64.96;100591.66;4932004;28;19993;-73
2023/10/22 03:58:25;;;;;;;;;;;;;;;2.76;65.67;100582.63;4948332;28;19957;-71
2023/10/22 04:00:52;;;;;;;;;;;;;;;2.72;65.89;100578.19;4930873;28;19922;-74
2023/10/22 04:03:18;;;;;;;;;;;;;;;2.61;65.58;100567.53;4930722;28;20279;-74
2023/10/22 04:05:44;;;;;;;;;;;;;;;2.47;65.64;100566.16;4928786;28;20397;-73
2023/10/22 04:08:10;;;;;;;;;;;;;;;2.49;66.07;100567.09;4956227;28;20037;-73
2023/10/22 04:10:36;;;;;;;;;;;;;;;2.47;66.25;100576.44;4946344;28;20375;-73
2023/10/22 04:13:02;;;;;;;;;;;;;;;2.47;65.19;100564.47;4930849;28;19923;-72
2023/10/22 04:15:29;;;;;;;;;;;;;;;2.47;66.30;100555.91;4931596;28;19937;-73
2023/10/22 04:17:55;;;;;;;;;;;;;;;2.43;66.06;100561.72;4949197;28;19937;-72
2023/10/22 04:20:21;;;;;;;;;;;;;;;2.41;66.14;100564.25;4901580;28;19922;-72
2023/10/22 04:22:47;;;;;;;;;;;;;;;2.39;65.87;100582.16;4931147;28;20502;-73
2023/10/22 04:25:13;;;;;;;;;;;;;;;2.32;66.09;100569.91;4930804;29;19922;-75
2023/10/22 04:27:39;;;;;;;;;;;;;;;2.24;66.16;100555.94;4930761;29;19927;-75
2023/10/22 04:30:05;;;;;;;;;;;;;;;2.19;65.98;100566.03;4931393;28;19922;-74
2023/10/22 04:32:34;;;;;;;;;;;;;;;2.16;65.75;100575.28;4944812;28;20404;-73
2023/10/22 04:35:00;;;;;;;;;;;;;;;2.15;66.55;100579.56;4932755;28;20297;-74
2023/10/22 04:37:27;;;;;;;;;;;;;;;2.19;66.54;100577.97;4931115;28;20031;-75
2023/10/22 04:39:54;;;;;;;;;;;;;;;2.24;66.43;100586.75;4931690;28;19977;-74
2023/10/22 04:42:19;;;;;;;;;;;;;;;2.27;66.45;100589.44;4929223;29;20013;-70
2023/10/22 04:44:45;;;;;;;;;;;;;;;2.29;66.15;100595.50;4944604;28;20017;-71
2023/10/22 04:47:11;;;;;;;;;;;;;;;2.27;66.07;100589.44;4938531;28;19926;-72
2023/10/22 04:49:37;;;;;;;;;;;;;;;2.28;66.31;100604.03;4946907;28;19923;-71
2023/10/22 04:52:03;;;;;;;;;;;;;;;2.27;66.20;100607.41;4953389;28;19957;-71
2023/10/22 04:54:29;;;;;;;;;;;;;;;2.23;66.04;100603.81;4915759;28;19981;-72
2023/10/22 04:56:55;;;;;;;;;;;;;;;2.27;66.34;100622.81;4930409;28;19969;-72
2023/10/22 04:59:20;;;;;;;;;;;;;;;2.33;66.42;100625.59;4916008;28;20033;-71
2023/10/22 05:01:46;;;;;;;;;;;;;;;2.38;66.17;100636.06;4942688;28;20561;-71
2023/10/22 05:04:12;;;;;;;;;;;;;;;2.47;66.53;100645.81;4955591;28;19930;-71
2023/10/22 05:06:38;;;;;;;;;;;;;;;2.52;66.57;100637.44;4931074;28;19946;-71
2023/10/22 05:09:03;;;;;;;;;;;;;;;2.58;65.78;100646.22;4955084;28;19926;-71
2023/10/22 05:11:29;;;;;;;;;;;;;;;2.69;67.05;100638.09;4931382;28;19971;-70
2023/10/22 05:13:55;;;;;;;;;;;;;;;2.82;66.64;100641.97;4915855;28;19926;-78
2023/10/22 05:16:21;;;;;;;;;;;;;;;2.84;66.54;100606.03;4930040;28;20312;-72
2023/10/22 05:18:46;;;;;;;;;;;;;;;3.19;66.32;100628.66;4952157;28;19945;-71
2023/10/22 05:21:12;;;;;;;;;;;;;;;3.26;65.78;100635.78;4953928;28;20384;-70
2023/10/22 05:23:38;;;;;;;;;;;;;;;3.30;65.98;100642.78;4931331;28;20297;-71
2023/10/22 05:26:08;;;;;;;;;;;;;;;3.31;65.97;100629.97;4931559;28;19935;-71
2023/10/22 05:28:34;;;;;;;;;;;;;;;3.27;66.21;100637.53;4924809;28;19922;-72
2023/10/22 05:31:03;;;;;;;;;;;;;;;3.31;65.25;100640.25;4931361;28;19922;-75
2023/10/22 05:33:28;;;;;;;;;;;;;;;3.23;64.65;100636.53;4931991;28;19927;-74
2023/10/22 05:35:59;;;;;;;;;;;;;;;3.10;65.06;100634.38;4916285;28;20025;-77
2023/10/22 05:38:25;;;;;;;;;;;;;;;3.00;64.64;100623.75;4940456;28;20304;-73
2023/10/22 05:40:53;;;;;;;;;;;;;;;3.00;65.09;100633.16;4939188;28;19922;-76
2023/10/22 05:43:19;;;;;;;;;;;;;;;3.01;65.79;100620.34;4919531;28;19926;-72
2023/10/22 05:45:45;;;;;;;;;;;;;;;3.00;65.78;100634.03;4921059;28;19953;-73
2023/10/22 05:48:11;;;;;;;;;;;;;;;2.91;65.75;100643.09;4931435;28;20028;-75
2023/10/22 05:50:38;;;;;;;;;;;;;;;2.84;65.94;100653.19;4957039;28;19923;-74
2023/10/22 05:53:10;;;;;;;;;;;;;;;2.74;65.53;100645.94;4920315;28;20381;-74
2023/10/22 05:55:37;;;;;;;;;;;;;;;2.80;66.09;100651.31;4936994;28;19926;-74
2023/10/22 05:58:03;;;;;;;;;;;;;;;2.90;66.16;100664.50;4936705;28;20575;-76
2023/10/22 06:00:30;;;;;;;;;;;;;;;3.06;66.45;100669.41;4919678;28;19923;-78
2023/10/22 06:02:59;;;;;;;;;;;;;;;3.15;65.79;100672.28;4937569;28;19926;-80
2023/10/22 06:05:25;;;;;;;;;;;;;;;3.14;65.53;100685.09;4934258;28;19929;-79
2023/10/22 06:07:53;;;;;;;;;;;;;;;3.19;65.95;100691.28;4935290;28;19930;-79
2023/10/22 06:10:20;;;;;;;;;;;;;;;3.22;65.90;100690.50;4929930;28;19984;-77
2023/10/22 06:12:48;;;;;;;;;;;;;;;3.34;66.11;100680.63;4920638;28;19927;-76
2023/10/22 06:15:13;;;;;;;;;;;;;;;3.42;65.78;100660.34;4937688;28;19927;-74
2023/10/22 06:17:39;;;;;;;;;;;;;;;3.55;65.62;100662.50;4952400;28;19926;-76
2023/10/22 06:20:05;;;;;;;;;;;;;;;3.53;65.77;100658.13;4934846;28;20033;-76
2023/10/22 06:22:31;;;;;;;;;;;;;;;3.47;65.46;100651.94;4942898;28;19931;-76
2023/10/22 06:24:57;;;;;;;;;;;;;;;3.21;64.92;100653.59;4943643;28;19930;-77
2023/10/22 06:27:23;;;;;;;;;;;;;;;3.20;66.13;100661.28;4935337;28;19922;-77
2023/10/22 06:29:49;;;;;;;;;;;;;;;3.35;65.98;100671.22;4952470;28;19985;-76
2023/10/22 06:32:14;;;;;;;;;;;;;;;3.42;65.92;100673.19;4921897;28;20289;-76
2023/10/22 06:34:43;;;;;;;;;;;;;;;3.58;66.44;100680.63;4919720;29;19926;-76
2023/10/22 06:37:09;;;;;;;;;;;;;;;3.71;65.91;100681.91;4937142;29;19941;-78
2023/10/22 06:39:34;;;;;;;;;;;;;;;3.83;65.67;100670.22;4937369;29;20036;-78
2023/10/22 06:42:01;;;;;;;;;;;;;;;3.82;65.65;100668.47;4935051;28;19922;-74
2023/10/22 06:44:26;;;;;;;;;;;;;;;3.76;64.68;100675.19;4934475;28;20300;-73
2023/10/22 06:46:52;;;;;;;;;;;;;;;3.69;65.09;100674.94;4919824;29;19926;-75
2023/10/22 06:49:18;;;;;;;;;;;;;;;3.22;65.28;100619.34;4951639;29;19927;-74
2023/10/22 06:51:44;;;;;;;;;;;;;;;3.47;65.12;100653.63;4951042;28;19977;-74
2023/10/22 06:54:10;;;;;;;;;;;;;;;3.57;65.59;100658.28;4950069;28;19922;-74
2023/10/22 06:56:35;;;;;;;;;;;;;;;3.72;65.63;100646.72;4951131;28;20368;-74
2023/10/22 06:59:03;;;;;;;;;;;;;;;3.81;65.43;100639.31;4951469;29;19929;-75
2023/10/22 07:01:31;;;;;;;;;;;;;;;3.78;64.79;100636.63;4933073;29;19981;-75
2023/10/22 07:03:57;;;;;;;;;;;;;;;3.55;64.28;100641.91;4934373;29;19926;-75
2023/10/22 07:06:23;;;;;;;;;;;;;;;3.64;65.32;100653.34;4932960;28;19922;-75
2023/10/22 07:08:49;;;;;;;;;;;;;;;3.72;65.61;100639.00;4949648;28;19962;-74
2023/10/22 07:11:14;;;;;;;;;;;;;;;3.65;65.01;100639.59;4952366;28;19926;-75
2023/10/22 07:13:40;;;;;;;;;;;;;;;3.57;65.20;100632.53;4938706;28;19972;-75
2023/10/22 07:16:07;;;;;;;;;;;;;;;3.67;65.17;100630.25;4955019;28;20388;-76
2023/10/22 07:18:33;;;;;;;;;;;;;;;3.81;65.71;100621.28;4933996;29;19970;-75
2023/10/22 07:20:59;;;;;;;;;;;;;;;3.91;66.15;100614.72;4936046;28;20005;-77
2023/10/22 07:23:25;;;;;;;;;;;;;;;3.97;65.86;100629.47;4936948;28;19929;-73
2023/10/22 07:26:00;;;;;;;;;;;;;;;3.98;65.72;100639.81;4934891;28;19922;-73
2023/10/22 07:28:26;;;;;;;;;;;;;;;3.95;65.17;100651.72;4951338;28;20010;-76
2023/10/22 07:30:52;;;;;;;;;;;;;;;3.90;65.28;100642.16;4936900;28;20013;-78
2023/10/22 07:33:18;;;;;;;;;;;;;;;3.77;64.84;100632.31;4937807;28;19923;-77
2023/10/22 07:35:54;;;;;;;;;;;;;;;3.78;65.94;100621.19;4953560;28;20307;-79
2023/10/22 07:38:20;;;;;;;;;;;;;;;3.77;64.72;100629.72;4944569;29;19926;-77
2023/10/22 07:40:46;;;;;;;;;;;;;;;3.70;65.22;100627.75;4954408;28;19942;-74
2023/10/22 07:43:11;;;;;;;;;;;;;;;3.60;65.34;100624.03;4935006;28;19969;-76
2023/10/22 07:45:38;;;;;;;;;;;;;;;3.74;65.54;100627.06;4955281;28;19922;-77
2023/10/22 07:48:05;;;;;;;;;;;;;;;3.94;65.40;100617.41;4933768;28;20304;-75
2023/10/22 07:50:31;;;;;;;;;;;;;;;3.93;64.79;100618.22;4919137;28;20025;-75
2023/10/22 07:52:57;;;;;;;;;;;;;;;3.88;63.87;100633.50;4934976;28;20304;-76
2023/10/22 07:55:23;;;;;;;;;;;;;;;3.71;64.69;100624.38;4951914;28;20022;-75
2023/10/22 07:57:48;;;;;;;;;;;;;;;3.89;65.60;100609.50;4933208;28;19969;-78
2023/10/22 08:00:14;;;;;;;;;;;;;;;4.01;65.44;100598.72;4950440;28;20490;-78
2023/10/22 08:02:40;;;;;;;;;;;;;;;3.80;64.84;100588.63;4951200;28;19929;-73
2023/10/22 08:05:08;;;;;;;;;;;;;;;3.96;65.15;100578.78;4933413;28;19926;-76
2023/10/22 08:07:34;;;;;;;;;;;;;;;3.82;64.67;100568.97;4933803;28;19922;-72
2023/10/22 08:10:00;;;;;;;;;;;;;;;3.82;64.79;100566.38;4949470;28;19930;-72
2023/10/22 08:12:26;;;;;;;;;;;;;;;3.94;66.02;100570.16;4936326;28;19968;-75
2023/10/22 08:14:51;;;;;;;;;;;;;;;3.83;64.93;100573.28;4918751;29;20606;-77
2023/10/22 08:17:17;;;;;;;;;;;;;;;3.81;65.25;100580.09;4953511;28;19922;-74
2023/10/22 08:19:43;;;;;;;;;;;;;;;3.98;65.16;100575.44;4937193;28;19926;-80
2023/10/22 08:22:09;;;;;;;;;;;;;;;4.02;65.42;100559.25;4950017;28;19926;-78
2023/10/22 08:24:34;;;;;;;;;;;;;;;4.07;65.15;100551.69;4949432;28;19927;-80
2023/10/22 08:27:01;;;;;;;;;;;;;;;4.07;64.50;100533.66;4933296;28;19922;-74
2023/10/22 08:29:30;;;;;;;;;;;;;;;4.01;64.79;100518.00;4950985;28;19922;-71
2023/10/22 08:31:55;;;;;;;;;;;;;;;3.88;64.57;100511.63;4931784;29;20320;-72
2023/10/22 08:34:22;;;;;;;;;;;;;;;3.86;64.85;100508.97;4941249;28;20029;-74
2023/10/22 08:36:48;;;;;;;;;;;;;;;3.88;65.10;100514.19;4920162;28;19933;-76
2023/10/22 08:39:14;;;;;;;;;;;;;;;4.02;64.76;100518.03;4916212;28;20017;-75
2023/10/22 08:41:44;;;;;;;;;;;;;;;4.21;65.95;100511.72;4949903;28;20359;-74
2023/10/22 08:44:14;;;;;;;;;;;;;;;4.33;65.15;100515.47;4934404;28;19922;-72
2023/10/22 08:46:40;;;;;;;;;;;;;;;4.37;64.99;100519.88;4948380;28;19926;-73
2023/10/22 08:49:06;;;;;;;;;;;;;;;4.21;64.21;100522.03;4935042;28;19923;-72
2023/10/22 08:51:32;;;;;;;;;;;;;;;4.35;65.06;100526.69;4956251;28;19926;-71
2023/10/22 08:53:58;;;;;;;;;;;;;;;4.22;64.52;100510.00;4931283;28;20401;-75
2023/10/22 08:56:23;;;;;;;;;;;;;;;4.42;64.10;100500.25;4949731;28;20312;-76
2023/10/22 08:58:49;;;;;;;;;;;;;;;4.45;63.55;100499.47;4959634;28;20388;-81
2023/10/22 09:01:17;;;;;;;;;;;;;;;4.22;63.75;100502.28;4950223;28;21076;-75
2023/10/22 09:03:43;;;;;;;;;;;;;;;4.29;63.76;100495.63;4947827;28;19923;-77
2023/10/22 09:06:09;;;;;;;;;;;;;;;4.30;63.28;100494.78;4950464;28;19970;-74
2023/10/22 09:08:42;;;;;;;;;;;;;;;4.25;63.88;100498.94;4939124;29;20463;-78
2023/10/22 09:11:15;;;;;;;;;;;;;;;4.47;64.53;100496.13;4918606;28;19962;-81
2023/10/22 09:13:41;;;;;;;;;;;;;;;4.53;63.64;100495.41;4957402;28;19958;-73
2023/10/22 09:16:08;;;;;;;;;;;;;;;4.59;63.90;100489.53;4949292;28;20076;-73
2023/10/22 09:18:41;;;;;;;;;;;;;;;4.60;62.96;100494.75;4953261;28;20357;-73
2023/10/22 09:21:07;;;;;;;;;;;;;;;4.63;63.70;100488.78;4936485;28;19954;-75
2023/10/22 09:23:33;;;;;;;;;;;;;;;4.54;62.75;100489.41;4935410;28;19922;-76
2023/10/22 09:25:59;;;;;;;;;;;;;;;4.40;62.98;100490.75;4944706;29;19931;-77
2023/10/22 09:28:26;;;;;;;;;;;;;;;4.29;63.44;100487.88;4936546;28;20006;-78
2023/10/22 09:31:03;;;;;;;;;;;;;;;4.30;64.32;100474.19;4935890;29;19922;-77
2023/10/22 09:33:37;;;;;;;;;;;;;;;4.53;63.96;100469.63;4937410;29;19961;-74
2023/10/22 09:36:04;;;;;;;;;;;;;;;4.57;63.72;100465.41;4951822;28;19965;-76
2023/10/22 09:38:44;;;;;;;;;;;;;;;4.73;64.00;100457.25;4923807;29;19922;-79
2023/10/22 09:41:11;;;;;;;;;;;;;;;4.73;63.23;100456.38;4938199;28;19927;-74
2023/10/22 09:43:37;;;;;;;;;;;;;;;4.64;63.15;100447.56;4952739;28;19922;-72
2023/10/22 09:46:08;;;;;;;;;;;;;;;4.63;63.11;100444.97;4922112;29;19933;-74
2023/10/22 09:48:35;;;;;;;;;;;;;;;4.59;63.12;100444.03;4921871;29;19926;-74
2023/10/22 09:51:05;;;;;;;;;;;;;;;4.66;62.56;100430.44;4923071;28;19929;-74
2023/10/22 09:53:36;;;;;;;;;;;;;;;4.75;62.57;100424.63;4936066;29;19927;-74
2023/10/22 09:56:06;;;;;;;;;;;;;;;4.57;61.75;100425.06;4936622;28;19926;-73
2023/10/22 09:58:36;;;;;;;;;;;;;;;4.44;63.01;100421.28;4936848;28;20385;-74
2023/10/22 10:01:02;;;;;;;;;;;;;;;4.50;62.94;100418.88;4923142;28;19922;-72
2023/10/22 10:03:28;;;;;;;;;;;;;;;4.66;62.94;100414.97;4937414;28;20025;-77
2023/10/22 10:05:57;;;;;;;;;;;;;;;4.60;62.16;100419.97;4935650;29;19929;-75
2023/10/22 10:08:23;;;;;;;;;;;;;;;4.57;63.15;100419.91;4942748;29;19946;-75
2023/10/22 10:10:49;;;;;;;;;;;;;;;4.60;62.99;100416.53;4939064;28;19926;-75
2023/10/22 10:13:15;;;;;;;;;;;;;;;4.44;63.24;100412.66;4952527;28;20013;-76
2023/10/22 10:15:41;;;;;;;;;;;;;;;4.58;63.12;100420.75;4952363;28;19930;-76
2023/10/22 10:18:09;;;;;;;;;;;;;;;4.54;62.76;100417.25;4940170;28;20445;-78
2023/10/22 10:20:38;;;;;;;;;;;;;;;4.65;63.13;100414.94;4921808;28;20001;-72
2023/10/22 10:23:07;;;;;;;;;;;;;;;4.71;62.45;100409.06;4925198;29;19981;-71
2023/10/22 10:25:33;;;;;;;;;;;;;;;4.57;62.19;100411.28;4951429;28;19951;-74
2023/10/22 10:28:03;;;;;;;;;;;;;;;4.59;62.97;100407.03;4942523;28;19973;-74
2023/10/22 10:30:30;;;;;;;;;;;;;;;4.61;62.50;100400.22;4922346;28;19927;-72
2023/10/22 10:32:56;;;;;;;;;;;;;;;4.58;62.80;100401.03;4959108;28;19934;-74
2023/10/22 10:35:23;;;;;;;;;;;;;;;4.73;62.80;100392.81;4950818;28;19986;-72
2023/10/22 10:38:10;;;;;;;;;;;;;;;4.74;62.96;100399.72;4919881;29;19923;-68
2023/10/22 10:40:47;;;;;;;;;;;;;;;4.72;62.93;100395.31;4921698;28;20418;-70
2023/10/22 10:43:12;;;;;;;;;;;;;;;4.68;62.67;100390.09;4935229;28;19922;-73
2023/10/22 10:45:43;;;;;;;;;;;;;;;4.73;62.83;100390.22;4953215;28;19965;-72
2023/10/22 10:48:51;;;;;;;;;;;;;;;4.89;63.38;100385.44;4939197;28;19933;-72
2023/10/22 10:51:24;;;;;;;;;;;;;;;4.78;61.65;100387.75;4872060;29;19927;-71
2023/10/22 10:54:07;;;;;;;;;;;;;;;4.70;62.71;100385.00;4885206;29;19927;-71
2023/10/22 10:56:47;;;;;;;;;;;;;;;4.57;62.55;100375.19;4934566;28;19931;-74
2023/10/22 10:59:32;;;;;;;;;;;;;;;4.45;62.91;100380.91;4933061;29;19922;-75
2023/10/22 11:02:07;;;;;;;;;;;;;;;4.42;62.83;100373.09;4933699;29;19929;-74
2023/10/22 11:04:33;;;;;;;;;;;;;;;4.49;63.27;100372.44;4961134;28;19922;-74
2023/10/22 11:06:59;;;;;;;;;;;;;;;4.74;62.89;100361.03;4953859;28;19926;-74
2023/10/22 11:09:26;;;;;;;;;;;;;;;4.81;62.34;100362.03;4923735;28;19933;-74
2023/10/22 11:11:55;;;;;;;;;;;;;;;4.88;63.10;100358.75;4938408;28;19936;-74
2023/10/22 11:14:21;;;;;;;;;;;;;;;4.76;62.88;100361.91;4941487;28;19923;-72
2023/10/22 11:16:56;;;;;;;;;;;;;;;4.82;62.79;100359.47;4920280;28;19930;-72
2023/10/22 11:19:26;;;;;;;;;;;;;;;4.79;62.55;100369.72;4961489;28;20442;-75
2023/10/22 11:21:52;;;;;;;;;;;;;;;4.77;62.56;100363.66;4939256;28;20410;-76
2023/10/22 11:24:19;;;;;;;;;;;;;;;4.93;63.01;100351.13;4955681;28;19923;-75
2023/10/22 11:26:47;;;;;;;;;;;;;;;5.09;63.14;100363.53;4943250;28;19945;-71
2023/10/22 11:29:13;;;;;;;;;;;;;;;4.99;62.41;100359.00;4956746;28;20016;-74
2023/10/22 11:31:39;;;;;;;;;;;;;;;4.82;61.96;100364.66;4934919;28;20080;-72
2023/10/22 11:34:14;;;;;;;;;;;;;;;4.59;62.39;100355.47;4950401;28;20448;-71
2023/10/22 11:36:40;;;;;;;;;;;;;;;4.34;61.67;100345.44;4920180;28;19926;-73
2023/10/22 11:39:19;;;;;;;;;;;;;;;4.34;63.18;100349.72;4935042;28;19933;-71
2023/10/22 11:41:45;;;;;;;;;;;;;;;4.34;63.23;100344.56;4939935;28;19962;-72
2023/10/22 11:44:31;;;;;;;;;;;;;;;4.36;63.16;100348.06;4927865;28;19923;-71
2023/10/22 11:47:03;;;;;;;;;;;;;;;4.39;62.77;100335.25;4942092;29;19938;-75
2023/10/22 11:49:29;;;;;;;;;;;;;;;4.46;62.84;100341.41;4944074;28;19926;-77
2023/10/22 11:51:54;;;;;;;;;;;;;;;4.40;62.92;100334.41;4942489;29;19922;-75
2023/10/22 11:54:37;;;;;;;;;;;;;;;4.42;63.25;100332.75;4938749;28;19965;-76
2023/10/22 11:57:05;;;;;;;;;;;;;;;4.53;63.38;100326.13;4957892;28;19946;-82
2023/10/22 11:59:31;;;;;;;;;;;;;;;4.60;63.22;100321.13;4944725;28;19922;-74
2023/10/22 12:01:56;;;;;;;;;;;;;;;4.59;63.39;100306.50;4941080;29;19989;-81
2023/10/22 12:04:22;;;;;;;;;;;;;;;4.59;63.31;100306.50;4946041;28;19929;-78
2023/10/22 12:06:50;;;;;;;;;;;;;;;4.68;63.30;100306.72;4946226;28;20388;-79
2023/10/22 12:09:16;;;;;;;;;;;;;;;4.68;62.86;100314.47;4947013;28;19927;-79
2023/10/22 12:11:42;;;;;;;;;;;;;;;4.57;63.28;100313.31;4932883;28;19978;-83
2023/10/22 12:14:09;;;;;;;;;;;;;;;4.35;63.44;100308.53;4936927;28;19950;-80
2023/10/22 12:16:37;;;;;;;;;;;;;;;4.38;64.18;100300.00;4965117;28;19970;-81
2023/10/22 12:19:03;;;;;;;;;;;;;;;4.51;63.57;100296.00;4949974;28;19964;-80
2023/10/22 12:21:29;;;;;;;;;;;;;;;4.39;63.09;100293.16;4966992;28;19926;-80
2023/10/22 12:23:55;;;;;;;;;;;;;;;4.31;63.64;100293.84;4954461;28;19922;-74
2023/10/22 12:26:23;;;;;;;;;;;;;;;4.23;63.86;100287.59;4914153;28;19921;-77
2023/10/22 12:28:49;;;;;;;;;;;;;;;4.17;63.50;100280.59;4954524;28;19926;-77
2023/10/22 12:31:15;;;;;;;;;;;;;;;4.34;64.42;100267.25;4940819;28;19980;-79
2023/10/22 12:33:41;;;;;;;;;;;;;;;4.52;64.46;100259.94;4938738;28;19933;-77
2023/10/22 12:36:07;;;;;;;;;;;;;;;4.50;64.62;100259.06;4921374;28;19926;-79
2023/10/22 12:38:33;;;;;;;;;;;;;;;4.52;63.38;100244.50;4958366;28;19923;-83
2023/10/22 12:40:59;;;;;;;;;;;;;;;4.50;63.93;100235.88;4947851;28;20002;-73
2023/10/22 12:43:26;;;;;;;;;;;;;;;4.32;63.24;100246.63;4946031;28;19922;-77
2023/10/22 12:45:52;;;;;;;;;;;;;;;4.10;63.82;100242.63;4955179;28;20232;-71
2023/10/22 12:48:18;;;;;;;;;;;;;;;4.09;64.99;100238.31;4964103;28;20013;-79